sensor_id;sensor_type;location;lat;lon;timestamp;P1;durP1;ratioP1;P2;durP2;ratioP2
65665;SDS011;52365;47.464;18.976;2023-03-04T00:00:33;40.17;;;21.92;;
65665;SDS011;52365;47.464;18.976;2023-03-04T00:01:09;36.70;;;20.85;;
65665;SDS011;52365;47.464;18.976;2023-03-04T00:01:45;37.65;;;21.35;;
65665;SDS011;52365;47.464;18.976;2023-03-04T00:02:21;35.55;;;20.95;;
65665;SDS011;52365;47.464;18.976;2023-03-04T00:02:57;37.53;;;20.98;;
65665;SDS011;52365;47.464;18.976;2023-03-04T00:03:33;37.83;;;21.35;;
65665;SDS011;52365;47.464;18.976;2023-03-04T00:04:11;38.58;;;21.92;;
65665;SDS011;52365;47.464;18.976;2023-03-04T00:04:48;37.08;;;20.55;;
65665;SDS011;52365;47.464;18.976;2023-03-04T00:05:24;41.22;;;21.55;;
65665;SDS011;52365;47.464;18.976;2023-03-04T00:06:00;37.70;;;21.27;;
65665;SDS011;52365;47.464;18.976;2023-03-04T00:06:36;37.80;;;21.08;;
65665;SDS011;52365;47.464;18.976;2023-03-04T00:07:12;36.17;;;20.40;;
65665;SDS011;52365;47.464;18.976;2023-03-04T00:07:51;37.60;;;20.85;;
65665;SDS011;52365;47.464;18.976;2023-03-04T00:08:27;35.40;;;20.12;;
65665;SDS011;52365;47.464;18.976;2023-03-04T00:09:03;36.25;;;20.60;;
65665;SDS011;52365;47.464;18.976;2023-03-04T00:09:40;36.80;;;20.55;;
65665;SDS011;52365;47.464;18.976;2023-03-04T00:10:16;36.08;;;20.35;;
65665;SDS011;52365;47.464;18.976;2023-03-04T00:10:52;37.50;;;20.92;;
65665;SDS011;52365;47.464;18.976;2023-03-04T00:11:28;35.60;;;21.05;;
65665;SDS011;52365;47.464;18.976;2023-03-04T00:12:05;40.75;;;21.05;;
65665;SDS011;52365;47.464;18.976;2023-03-04T00:12:43;38.72;;;20.83;;
65665;SDS011;52365;47.464;18.976;2023-03-04T00:13:19;35.38;;;20.23;;
65665;SDS011;52365;47.464;18.976;2023-03-04T00:13:56;40.90;;;21.50;;
65665;SDS011;52365;47.464;18.976;2023-03-04T00:14:33;35.33;;;19.95;;
65665;SDS011;52365;47.464;18.976;2023-03-04T00:15:09;36.27;;;20.63;;
65665;SDS011;52365;47.464;18.976;2023-03-04T00:15:45;40.12;;;21.58;;
65665;SDS011;52365;47.464;18.976;2023-03-04T00:16:21;37.83;;;21.15;;
65665;SDS011;52365;47.464;18.976;2023-03-04T00:16:58;36.13;;;20.42;;
65665;SDS011;52365;47.464;18.976;2023-03-04T00:17:34;38.67;;;20.80;;
65665;SDS011;52365;47.464;18.976;2023-03-04T00:18:10;40.97;;;22.10;;
65665;SDS011;52365;47.464;18.976;2023-03-04T00:18:46;36.78;;;21.20;;
65665;SDS011;52365;47.464;18.976;2023-03-04T00:19:22;36.05;;;20.50;;
65665;SDS011;52365;47.464;18.976;2023-03-04T00:19:58;36.42;;;20.33;;
65665;SDS011;52365;47.464;18.976;2023-03-04T00:20:34;38.42;;;20.42;;
65665;SDS011;52365;47.464;18.976;2023-03-04T00:21:10;39.90;;;21.80;;
65665;SDS011;52365;47.464;18.976;2023-03-04T00:21:46;37.72;;;21.25;;
65665;SDS011;52365;47.464;18.976;2023-03-04T00:22:22;34.50;;;20.80;;
65665;SDS011;52365;47.464;18.976;2023-03-04T00:22:59;36.83;;;21.08;;
65665;SDS011;52365;47.464;18.976;2023-03-04T00:23:35;37.45;;;20.95;;
65665;SDS011;52365;47.464;18.976;2023-03-04T00:24:11;37.17;;;20.58;;
65665;SDS011;52365;47.464;18.976;2023-03-04T00:24:47;36.85;;;20.27;;
65665;SDS011;52365;47.464;18.976;2023-03-04T00:25:23;35.65;;;20.40;;
65665;SDS011;52365;47.464;18.976;2023-03-04T00:25:59;35.47;;;19.85;;
65665;SDS011;52365;47.464;18.976;2023-03-04T00:26:35;37.67;;;20.75;;
65665;SDS011;52365;47.464;18.976;2023-03-04T00:27:11;34.60;;;20.10;;
65665;SDS011;52365;47.464;18.976;2023-03-04T00:27:47;35.20;;;19.80;;
65665;SDS011;52365;47.464;18.976;2023-03-04T00:28:23;35.90;;;19.87;;
65665;SDS011;52365;47.464;18.976;2023-03-04T00:28:59;34.10;;;19.90;;
65665;SDS011;52365;47.464;18.976;2023-03-04T00:29:35;36.08;;;20.48;;
65665;SDS011;52365;47.464;18.976;2023-03-04T00:30:11;35.58;;;20.50;;
65665;SDS011;52365;47.464;18.976;2023-03-04T00:30:48;34.40;;;19.65;;
65665;SDS011;52365;47.464;18.976;2023-03-04T00:31:24;37.53;;;20.10;;
65665;SDS011;52365;47.464;18.976;2023-03-04T00:32:00;34.90;;;19.75;;
65665;SDS011;52365;47.464;18.976;2023-03-04T00:32:36;36.08;;;19.92;;
65665;SDS011;52365;47.464;18.976;2023-03-04T00:33:12;37.95;;;20.33;;
65665;SDS011;52365;47.464;18.976;2023-03-04T00:33:48;32.70;;;19.35;;
65665;SDS011;52365;47.464;18.976;2023-03-04T00:34:24;36.63;;;19.62;;
65665;SDS011;52365;47.464;18.976;2023-03-04T00:35:00;34.65;;;19.52;;
65665;SDS011;52365;47.464;18.976;2023-03-04T00:35:36;35.25;;;19.33;;
65665;SDS011;52365;47.464;18.976;2023-03-04T00:36:12;33.22;;;19.60;;
65665;SDS011;52365;47.464;18.976;2023-03-04T00:36:48;34.08;;;19.27;;
65665;SDS011;52365;47.464;18.976;2023-03-04T00:37:24;37.42;;;20.00;;
65665;SDS011;52365;47.464;18.976;2023-03-04T00:38:01;33.28;;;19.27;;
65665;SDS011;52365;47.464;18.976;2023-03-04T00:38:37;35.25;;;19.75;;
65665;SDS011;52365;47.464;18.976;2023-03-04T00:39:13;34.20;;;19.48;;
65665;SDS011;52365;47.464;18.976;2023-03-04T00:39:49;37.58;;;20.30;;
65665;SDS011;52365;47.464;18.976;2023-03-04T00:40:25;34.78;;;19.33;;
65665;SDS011;52365;47.464;18.976;2023-03-04T00:41:01;34.13;;;19.27;;
65665;SDS011;52365;47.464;18.976;2023-03-04T00:41:40;37.65;;;20.10;;
65665;SDS011;52365;47.464;18.976;2023-03-04T00:42:16;34.42;;;19.52;;
65665;SDS011;52365;47.464;18.976;2023-03-04T00:42:52;35.05;;;19.25;;
65665;SDS011;52365;47.464;18.976;2023-03-04T00:43:28;35.72;;;20.50;;
65665;SDS011;52365;47.464;18.976;2023-03-04T00:44:05;33.78;;;18.87;;
65665;SDS011;52365;47.464;18.976;2023-03-04T00:44:41;32.55;;;18.60;;
65665;SDS011;52365;47.464;18.976;2023-03-04T00:45:17;33.78;;;19.00;;
65665;SDS011;52365;47.464;18.976;2023-03-04T00:45:53;40.15;;;20.08;;
65665;SDS011;52365;47.464;18.976;2023-03-04T00:46:29;34.35;;;19.52;;
65665;SDS011;52365;47.464;18.976;2023-03-04T00:47:05;34.75;;;19.33;;
65665;SDS011;52365;47.464;18.976;2023-03-04T00:47:41;32.58;;;18.50;;
65665;SDS011;52365;47.464;18.976;2023-03-04T00:48:17;32.95;;;19.10;;
65665;SDS011;52365;47.464;18.976;2023-03-04T00:48:53;32.38;;;18.23;;
65665;SDS011;52365;47.464;18.976;2023-03-04T00:49:29;36.50;;;19.27;;
65665;SDS011;52365;47.464;18.976;2023-03-04T00:50:05;34.33;;;19.42;;
65665;SDS011;52365;47.464;18.976;2023-03-04T00:50:42;33.33;;;19.45;;
65665;SDS011;52365;47.464;18.976;2023-03-04T00:51:19;36.40;;;19.52;;
65665;SDS011;52365;47.464;18.976;2023-03-04T00:51:55;30.90;;;18.90;;
65665;SDS011;52365;47.464;18.976;2023-03-04T00:52:31;34.88;;;20.20;;
65665;SDS011;52365;47.464;18.976;2023-03-04T00:53:07;35.08;;;19.75;;
65665;SDS011;52365;47.464;18.976;2023-03-04T00:53:43;33.92;;;19.62;;
65665;SDS011;52365;47.464;18.976;2023-03-04T00:54:20;34.72;;;18.98;;
65665;SDS011;52365;47.464;18.976;2023-03-04T00:54:56;34.13;;;18.77;;
65665;SDS011;52365;47.464;18.976;2023-03-04T00:55:32;34.92;;;19.42;;
65665;SDS011;52365;47.464;18.976;2023-03-04T00:56:08;35.92;;;20.00;;
65665;SDS011;52365;47.464;18.976;2023-03-04T00:56:44;35.47;;;19.40;;
65665;SDS011;52365;47.464;18.976;2023-03-04T00:57:20;33.75;;;19.40;;
65665;SDS011;52365;47.464;18.976;2023-03-04T00:57:56;33.10;;;18.70;;
65665;SDS011;52365;47.464;18.976;2023-03-04T00:58:32;34.88;;;19.25;;
65665;SDS011;52365;47.464;18.976;2023-03-04T00:59:08;32.80;;;18.77;;
65665;SDS011;52365;47.464;18.976;2023-03-04T00:59:44;35.78;;;19.27;;
65665;SDS011;52365;47.464;18.976;2023-03-04T01:00:21;33.95;;;18.40;;
65665;SDS011;52365;47.464;18.976;2023-03-04T01:00:57;35.67;;;18.75;;
65665;SDS011;52365;47.464;18.976;2023-03-04T01:01:33;32.95;;;18.33;;
65665;SDS011;52365;47.464;18.976;2023-03-04T01:02:09;33.70;;;19.25;;
65665;SDS011;52365;47.464;18.976;2023-03-04T01:02:45;35.58;;;20.17;;
65665;SDS011;52365;47.464;18.976;2023-03-04T01:03:21;35.85;;;20.05;;
65665;SDS011;52365;47.464;18.976;2023-03-04T01:03:59;36.20;;;19.62;;
65665;SDS011;52365;47.464;18.976;2023-03-04T01:04:35;35.53;;;19.05;;
65665;SDS011;52365;47.464;18.976;2023-03-04T01:05:11;32.70;;;19.23;;
65665;SDS011;52365;47.464;18.976;2023-03-04T01:05:47;34.60;;;19.52;;
65665;SDS011;52365;47.464;18.976;2023-03-04T01:06:24;34.03;;;19.60;;
65665;SDS011;52365;47.464;18.976;2023-03-04T01:07:00;34.15;;;19.17;;
65665;SDS011;52365;47.464;18.976;2023-03-04T01:07:36;33.92;;;19.20;;
65665;SDS011;52365;47.464;18.976;2023-03-04T01:08:12;33.58;;;19.45;;
65665;SDS011;52365;47.464;18.976;2023-03-04T01:08:48;32.42;;;18.62;;
65665;SDS011;52365;47.464;18.976;2023-03-04T01:09:24;34.47;;;18.73;;
65665;SDS011;52365;47.464;18.976;2023-03-04T01:10:01;34.38;;;18.98;;
65665;SDS011;52365;47.464;18.976;2023-03-04T01:10:37;32.97;;;19.25;;
65665;SDS011;52365;47.464;18.976;2023-03-04T01:11:13;33.58;;;19.37;;
65665;SDS011;52365;47.464;18.976;2023-03-04T01:11:49;32.92;;;17.90;;
65665;SDS011;52365;47.464;18.976;2023-03-04T01:12:26;30.92;;;17.65;;
65665;SDS011;52365;47.464;18.976;2023-03-04T01:13:02;30.88;;;17.40;;
65665;SDS011;52365;47.464;18.976;2023-03-04T01:13:38;32.88;;;17.60;;
65665;SDS011;52365;47.464;18.976;2023-03-04T01:14:15;32.13;;;17.92;;
65665;SDS011;52365;47.464;18.976;2023-03-04T01:14:51;31.73;;;18.27;;
65665;SDS011;52365;47.464;18.976;2023-03-04T01:15:27;35.17;;;19.12;;
65665;SDS011;52365;47.464;18.976;2023-03-04T01:16:03;34.58;;;19.20;;
65665;SDS011;52365;47.464;18.976;2023-03-04T01:16:39;32.83;;;18.70;;
65665;SDS011;52365;47.464;18.976;2023-03-04T01:17:15;33.85;;;19.37;;
65665;SDS011;52365;47.464;18.976;2023-03-04T01:17:53;34.35;;;19.12;;
65665;SDS011;52365;47.464;18.976;2023-03-04T01:18:29;32.72;;;18.37;;
65665;SDS011;52365;47.464;18.976;2023-03-04T01:19:05;34.58;;;18.05;;
65665;SDS011;52365;47.464;18.976;2023-03-04T01:19:41;33.95;;;18.12;;
65665;SDS011;52365;47.464;18.976;2023-03-04T01:20:17;30.73;;;16.50;;
65665;SDS011;52365;47.464;18.976;2023-03-04T01:20:54;28.48;;;15.30;;
65665;SDS011;52365;47.464;18.976;2023-03-04T01:21:30;29.90;;;17.17;;
65665;SDS011;52365;47.464;18.976;2023-03-04T01:22:06;30.40;;;17.42;;
65665;SDS011;52365;47.464;18.976;2023-03-04T01:22:42;28.08;;;16.25;;
65665;SDS011;52365;47.464;18.976;2023-03-04T01:23:18;28.73;;;16.23;;
65665;SDS011;52365;47.464;18.976;2023-03-04T01:23:54;28.02;;;15.65;;
65665;SDS011;52365;47.464;18.976;2023-03-04T01:24:30;29.12;;;15.95;;
65665;SDS011;52365;47.464;18.976;2023-03-04T01:25:06;29.75;;;16.52;;
65665;SDS011;52365;47.464;18.976;2023-03-04T01:25:43;31.98;;;16.50;;
65665;SDS011;52365;47.464;18.976;2023-03-04T01:26:19;31.37;;;17.45;;
65665;SDS011;52365;47.464;18.976;2023-03-04T01:26:55;28.83;;;16.20;;
65665;SDS011;52365;47.464;18.976;2023-03-04T01:27:34;28.48;;;16.15;;
65665;SDS011;52365;47.464;18.976;2023-03-04T01:28:13;27.40;;;15.32;;
65665;SDS011;52365;47.464;18.976;2023-03-04T01:28:49;27.98;;;15.05;;
65665;SDS011;52365;47.464;18.976;2023-03-04T01:29:25;27.95;;;15.38;;
65665;SDS011;52365;47.464;18.976;2023-03-04T01:30:01;26.35;;;14.87;;
65665;SDS011;52365;47.464;18.976;2023-03-04T01:30:38;29.45;;;15.13;;
65665;SDS011;52365;47.464;18.976;2023-03-04T01:31:14;27.98;;;16.20;;
65665;SDS011;52365;47.464;18.976;2023-03-04T01:31:50;25.67;;;14.65;;
65665;SDS011;52365;47.464;18.976;2023-03-04T01:32:26;27.17;;;14.75;;
65665;SDS011;52365;47.464;18.976;2023-03-04T01:33:02;26.27;;;14.00;;
65665;SDS011;52365;47.464;18.976;2023-03-04T01:33:38;26.08;;;13.65;;
65665;SDS011;52365;47.464;18.976;2023-03-04T01:34:14;24.55;;;13.40;;
65665;SDS011;52365;47.464;18.976;2023-03-04T01:34:52;26.35;;;14.40;;
65665;SDS011;52365;47.464;18.976;2023-03-04T01:35:28;27.30;;;14.57;;
65665;SDS011;52365;47.464;18.976;2023-03-04T01:36:04;25.88;;;14.57;;
65665;SDS011;52365;47.464;18.976;2023-03-04T01:36:41;25.92;;;14.63;;
65665;SDS011;52365;47.464;18.976;2023-03-04T01:37:17;27.52;;;14.68;;
65665;SDS011;52365;47.464;18.976;2023-03-04T01:37:53;24.98;;;14.30;;
65665;SDS011;52365;47.464;18.976;2023-03-04T01:38:29;29.60;;;15.40;;
65665;SDS011;52365;47.464;18.976;2023-03-04T01:39:05;31.27;;;15.27;;
65665;SDS011;52365;47.464;18.976;2023-03-04T01:39:41;28.33;;;14.77;;
65665;SDS011;52365;47.464;18.976;2023-03-04T01:40:17;26.67;;;14.32;;
65665;SDS011;52365;47.464;18.976;2023-03-04T01:40:53;28.85;;;14.38;;
65665;SDS011;52365;47.464;18.976;2023-03-04T01:41:29;28.65;;;15.05;;
65665;SDS011;52365;47.464;18.976;2023-03-04T01:42:11;26.80;;;14.70;;
65665;SDS011;52365;47.464;18.976;2023-03-04T01:42:52;27.40;;;13.70;;
65665;SDS011;52365;47.464;18.976;2023-03-04T01:43:29;26.55;;;14.65;;
65665;SDS011;52365;47.464;18.976;2023-03-04T01:44:07;29.25;;;15.38;;
65665;SDS011;52365;47.464;18.976;2023-03-04T01:44:44;28.77;;;14.87;;
65665;SDS011;52365;47.464;18.976;2023-03-04T01:45:21;25.62;;;14.10;;
65665;SDS011;52365;47.464;18.976;2023-03-04T01:45:58;25.60;;;14.57;;
65665;SDS011;52365;47.464;18.976;2023-03-04T01:46:34;25.67;;;13.82;;
65665;SDS011;52365;47.464;18.976;2023-03-04T01:47:10;25.35;;;14.20;;
65665;SDS011;52365;47.464;18.976;2023-03-04T01:47:47;23.75;;;13.15;;
65665;SDS011;52365;47.464;18.976;2023-03-04T01:48:25;24.10;;;14.00;;
65665;SDS011;52365;47.464;18.976;2023-03-04T01:49:05;27.02;;;13.88;;
65665;SDS011;52365;47.464;18.976;2023-03-04T01:49:45;24.95;;;13.98;;
65665;SDS011;52365;47.464;18.976;2023-03-04T01:51:10;26.27;;;14.15;;
65665;SDS011;52365;47.464;18.976;2023-03-04T01:51:50;25.20;;;13.70;;
65665;SDS011;52365;47.464;18.976;2023-03-04T01:52:28;23.95;;;13.15;;
65665;SDS011;52365;47.464;18.976;2023-03-04T01:53:04;26.80;;;14.15;;
65665;SDS011;52365;47.464;18.976;2023-03-04T01:53:41;26.40;;;13.40;;
65665;SDS011;52365;47.464;18.976;2023-03-04T01:54:19;24.17;;;12.73;;
65665;SDS011;52365;47.464;18.976;2023-03-04T01:54:57;25.20;;;13.50;;
65665;SDS011;52365;47.464;18.976;2023-03-04T01:55:33;25.95;;;13.05;;
65665;SDS011;52365;47.464;18.976;2023-03-04T01:56:16;24.15;;;12.40;;
65665;SDS011;52365;47.464;18.976;2023-03-04T01:56:56;24.50;;;12.50;;
65665;SDS011;52365;47.464;18.976;2023-03-04T01:57:34;24.00;;;12.77;;
65665;SDS011;52365;47.464;18.976;2023-03-04T01:58:11;24.20;;;12.30;;
65665;SDS011;52365;47.464;18.976;2023-03-04T01:59:47;20.25;;;11.07;;
65665;SDS011;52365;47.464;18.976;2023-03-04T02:01:02;22.23;;;12.10;;
65665;SDS011;52365;47.464;18.976;2023-03-04T02:01:39;24.55;;;12.60;;
65665;SDS011;52365;47.464;18.976;2023-03-04T02:02:18;22.52;;;12.37;;
65665;SDS011;52365;47.464;18.976;2023-03-04T02:02:56;22.42;;;12.30;;
65665;SDS011;52365;47.464;18.976;2023-03-04T02:03:34;22.73;;;12.02;;
65665;SDS011;52365;47.464;18.976;2023-03-04T02:04:10;22.37;;;11.65;;
65665;SDS011;52365;47.464;18.976;2023-03-04T02:04:47;24.20;;;12.27;;
65665;SDS011;52365;47.464;18.976;2023-03-04T02:05:23;23.48;;;12.07;;
65665;SDS011;52365;47.464;18.976;2023-03-04T02:06:01;23.00;;;12.05;;
65665;SDS011;52365;47.464;18.976;2023-03-04T02:06:37;21.60;;;11.60;;
65665;SDS011;52365;47.464;18.976;2023-03-04T02:07:15;22.67;;;11.85;;
65665;SDS011;52365;47.464;18.976;2023-03-04T02:07:51;22.10;;;11.77;;
65665;SDS011;52365;47.464;18.976;2023-03-04T02:08:29;21.20;;;11.45;;
65665;SDS011;52365;47.464;18.976;2023-03-04T02:09:06;24.65;;;11.88;;
65665;SDS011;52365;47.464;18.976;2023-03-04T02:09:42;23.30;;;11.60;;
65665;SDS011;52365;47.464;18.976;2023-03-04T02:10:18;22.65;;;11.80;;
65665;SDS011;52365;47.464;18.976;2023-03-04T02:10:55;21.87;;;11.80;;
65665;SDS011;52365;47.464;18.976;2023-03-04T02:11:31;21.70;;;11.57;;
65665;SDS011;52365;47.464;18.976;2023-03-04T02:12:07;22.13;;;12.20;;
65665;SDS011;52365;47.464;18.976;2023-03-04T02:12:44;22.95;;;11.38;;
65665;SDS011;52365;47.464;18.976;2023-03-04T02:13:20;23.65;;;10.73;;
65665;SDS011;52365;47.464;18.976;2023-03-04T02:13:57;22.48;;;10.98;;
65665;SDS011;52365;47.464;18.976;2023-03-04T02:14:34;20.70;;;11.57;;
65665;SDS011;52365;47.464;18.976;2023-03-04T02:15:10;20.15;;;10.77;;
65665;SDS011;52365;47.464;18.976;2023-03-04T02:15:46;20.30;;;11.07;;
65665;SDS011;52365;47.464;18.976;2023-03-04T02:16:22;22.17;;;11.38;;
65665;SDS011;52365;47.464;18.976;2023-03-04T02:16:58;21.73;;;10.90;;
65665;SDS011;52365;47.464;18.976;2023-03-04T02:17:35;20.23;;;11.10;;
65665;SDS011;52365;47.464;18.976;2023-03-04T02:18:16;21.67;;;11.80;;
65665;SDS011;52365;47.464;18.976;2023-03-04T02:18:54;21.30;;;11.50;;
65665;SDS011;52365;47.464;18.976;2023-03-04T02:19:50;20.10;;;10.77;;
65665;SDS011;52365;47.464;18.976;2023-03-04T02:21:24;19.15;;;10.10;;
65665;SDS011;52365;47.464;18.976;2023-03-04T02:22:05;19.52;;;10.85;;
65665;SDS011;52365;47.464;18.976;2023-03-04T02:23:25;20.60;;;10.60;;
65665;SDS011;52365;47.464;18.976;2023-03-04T02:24:34;19.90;;;10.25;;
65665;SDS011;52365;47.464;18.976;2023-03-04T02:25:17;18.75;;;9.95;;
65665;SDS011;52365;47.464;18.976;2023-03-04T02:26:16;14.87;;;8.15;;
65665;SDS011;52365;47.464;18.976;2023-03-04T02:26:57;13.13;;;6.87;;
65665;SDS011;52365;47.464;18.976;2023-03-04T02:27:33;15.80;;;8.45;;
65665;SDS011;52365;47.464;18.976;2023-03-04T02:28:09;16.90;;;8.48;;
65665;SDS011;52365;47.464;18.976;2023-03-04T02:28:49;16.25;;;8.57;;
65665;SDS011;52365;47.464;18.976;2023-03-04T02:29:26;17.25;;;8.60;;
65665;SDS011;52365;47.464;18.976;2023-03-04T02:30:03;15.73;;;8.18;;
65665;SDS011;52365;47.464;18.976;2023-03-04T02:30:40;15.70;;;8.18;;
65665;SDS011;52365;47.464;18.976;2023-03-04T02:31:23;14.82;;;7.60;;
65665;SDS011;52365;47.464;18.976;2023-03-04T02:32:02;17.92;;;8.73;;
65665;SDS011;52365;47.464;18.976;2023-03-04T02:32:38;17.87;;;9.07;;
65665;SDS011;52365;47.464;18.976;2023-03-04T02:33:16;19.35;;;9.68;;
65665;SDS011;52365;47.464;18.976;2023-03-04T02:33:54;15.75;;;8.45;;
65665;SDS011;52365;47.464;18.976;2023-03-04T02:34:33;17.12;;;8.85;;
65665;SDS011;52365;47.464;18.976;2023-03-04T02:35:15;12.80;;;6.72;;
65665;SDS011;52365;47.464;18.976;2023-03-04T02:35:52;15.35;;;7.97;;
65665;SDS011;52365;47.464;18.976;2023-03-04T02:36:28;18.37;;;8.88;;
65665;SDS011;52365;47.464;18.976;2023-03-04T02:37:08;16.50;;;8.77;;
65665;SDS011;52365;47.464;18.976;2023-03-04T02:37:45;17.00;;;9.27;;
65665;SDS011;52365;47.464;18.976;2023-03-04T02:38:21;16.45;;;8.70;;
65665;SDS011;52365;47.464;18.976;2023-03-04T02:39:02;17.77;;;9.00;;
65665;SDS011;52365;47.464;18.976;2023-03-04T02:39:42;16.48;;;8.57;;
65665;SDS011;52365;47.464;18.976;2023-03-04T02:40:23;16.25;;;8.13;;
65665;SDS011;52365;47.464;18.976;2023-03-04T02:41:04;16.20;;;8.25;;
65665;SDS011;52365;47.464;18.976;2023-03-04T02:41:47;13.62;;;7.03;;
65665;SDS011;52365;47.464;18.976;2023-03-04T02:42:25;15.13;;;8.05;;
65665;SDS011;52365;47.464;18.976;2023-03-04T02:43:01;15.45;;;8.45;;
65665;SDS011;52365;47.464;18.976;2023-03-04T02:43:37;15.98;;;8.30;;
65665;SDS011;52365;47.464;18.976;2023-03-04T02:44:32;15.65;;;7.90;;
65665;SDS011;52365;47.464;18.976;2023-03-04T02:46:04;15.18;;;8.40;;
65665;SDS011;52365;47.464;18.976;2023-03-04T02:46:40;16.27;;;8.10;;
65665;SDS011;52365;47.464;18.976;2023-03-04T02:47:17;15.52;;;8.32;;
65665;SDS011;52365;47.464;18.976;2023-03-04T02:47:53;16.12;;;8.07;;
65665;SDS011;52365;47.464;18.976;2023-03-04T02:48:29;16.83;;;7.85;;
65665;SDS011;52365;47.464;18.976;2023-03-04T02:49:05;14.57;;;7.57;;
65665;SDS011;52365;47.464;18.976;2023-03-04T02:49:41;14.93;;;8.35;;
65665;SDS011;52365;47.464;18.976;2023-03-04T02:50:18;15.38;;;7.72;;
65665;SDS011;52365;47.464;18.976;2023-03-04T02:50:54;14.50;;;7.80;;
65665;SDS011;52365;47.464;18.976;2023-03-04T02:51:30;15.00;;;8.25;;
65665;SDS011;52365;47.464;18.976;2023-03-04T02:52:08;14.95;;;7.80;;
65665;SDS011;52365;47.464;18.976;2023-03-04T02:52:50;17.05;;;8.68;;
65665;SDS011;52365;47.464;18.976;2023-03-04T02:53:26;15.77;;;8.00;;
65665;SDS011;52365;47.464;18.976;2023-03-04T02:54:02;15.15;;;8.00;;
65665;SDS011;52365;47.464;18.976;2023-03-04T02:54:38;14.55;;;7.10;;
65665;SDS011;52365;47.464;18.976;2023-03-04T02:55:14;15.98;;;7.75;;
65665;SDS011;52365;47.464;18.976;2023-03-04T02:55:50;16.10;;;7.80;;
65665;SDS011;52365;47.464;18.976;2023-03-04T02:56:26;14.85;;;8.05;;
65665;SDS011;52365;47.464;18.976;2023-03-04T02:57:04;16.40;;;7.80;;
65665;SDS011;52365;47.464;18.976;2023-03-04T02:57:42;14.93;;;7.93;;
65665;SDS011;52365;47.464;18.976;2023-03-04T02:58:18;15.35;;;8.02;;
65665;SDS011;52365;47.464;18.976;2023-03-04T02:58:54;15.25;;;7.90;;
65665;SDS011;52365;47.464;18.976;2023-03-04T02:59:30;15.68;;;8.35;;
65665;SDS011;52365;47.464;18.976;2023-03-04T03:00:06;14.90;;;7.72;;
65665;SDS011;52365;47.464;18.976;2023-03-04T03:00:43;16.00;;;8.43;;
65665;SDS011;52365;47.464;18.976;2023-03-04T03:01:19;14.85;;;7.93;;
65665;SDS011;52365;47.464;18.976;2023-03-04T03:01:55;15.43;;;7.90;;
65665;SDS011;52365;47.464;18.976;2023-03-04T03:02:31;15.80;;;8.00;;
65665;SDS011;52365;47.464;18.976;2023-03-04T03:03:07;17.48;;;8.35;;
65665;SDS011;52365;47.464;18.976;2023-03-04T03:03:44;16.05;;;8.18;;
65665;SDS011;52365;47.464;18.976;2023-03-04T03:04:20;16.40;;;8.30;;
65665;SDS011;52365;47.464;18.976;2023-03-04T03:04:57;17.02;;;8.38;;
65665;SDS011;52365;47.464;18.976;2023-03-04T03:05:33;15.60;;;8.32;;
65665;SDS011;52365;47.464;18.976;2023-03-04T03:06:10;16.05;;;8.50;;
65665;SDS011;52365;47.464;18.976;2023-03-04T03:06:46;16.35;;;8.90;;
65665;SDS011;52365;47.464;18.976;2023-03-04T03:07:23;17.25;;;8.55;;
65665;SDS011;52365;47.464;18.976;2023-03-04T03:07:59;16.92;;;9.27;;
65665;SDS011;52365;47.464;18.976;2023-03-04T03:08:35;18.37;;;8.90;;
65665;SDS011;52365;47.464;18.976;2023-03-04T03:09:11;18.87;;;8.80;;
65665;SDS011;52365;47.464;18.976;2023-03-04T03:09:47;18.55;;;9.00;;
65665;SDS011;52365;47.464;18.976;2023-03-04T03:10:24;17.67;;;8.82;;
65665;SDS011;52365;47.464;18.976;2023-03-04T03:11:00;18.67;;;9.65;;
65665;SDS011;52365;47.464;18.976;2023-03-04T03:11:36;16.70;;;8.88;;
65665;SDS011;52365;47.464;18.976;2023-03-04T03:12:12;17.55;;;9.27;;
65665;SDS011;52365;47.464;18.976;2023-03-04T03:12:49;18.45;;;8.88;;
65665;SDS011;52365;47.464;18.976;2023-03-04T03:13:25;18.02;;;8.95;;
65665;SDS011;52365;47.464;18.976;2023-03-04T03:14:01;16.77;;;9.05;;
65665;SDS011;52365;47.464;18.976;2023-03-04T03:14:37;17.17;;;9.02;;
65665;SDS011;52365;47.464;18.976;2023-03-04T03:15:13;17.98;;;9.40;;
65665;SDS011;52365;47.464;18.976;2023-03-04T03:15:49;18.40;;;9.07;;
65665;SDS011;52365;47.464;18.976;2023-03-04T03:16:25;17.23;;;9.18;;
65665;SDS011;52365;47.464;18.976;2023-03-04T03:17:01;16.25;;;8.82;;
65665;SDS011;52365;47.464;18.976;2023-03-04T03:17:38;17.70;;;9.13;;
65665;SDS011;52365;47.464;18.976;2023-03-04T03:18:15;15.32;;;8.48;;
65665;SDS011;52365;47.464;18.976;2023-03-04T03:18:51;17.65;;;8.73;;
65665;SDS011;52365;47.464;18.976;2023-03-04T03:19:27;16.35;;;9.15;;
65665;SDS011;52365;47.464;18.976;2023-03-04T03:20:03;16.85;;;9.05;;
65665;SDS011;52365;47.464;18.976;2023-03-04T03:20:40;16.40;;;9.13;;
65665;SDS011;52365;47.464;18.976;2023-03-04T03:21:16;15.57;;;8.93;;
65665;SDS011;52365;47.464;18.976;2023-03-04T03:21:53;17.73;;;9.02;;
65665;SDS011;52365;47.464;18.976;2023-03-04T03:22:29;16.62;;;8.50;;
65665;SDS011;52365;47.464;18.976;2023-03-04T03:23:05;17.00;;;9.10;;
65665;SDS011;52365;47.464;18.976;2023-03-04T03:23:41;18.15;;;8.93;;
65665;SDS011;52365;47.464;18.976;2023-03-04T03:24:18;14.98;;;8.50;;
65665;SDS011;52365;47.464;18.976;2023-03-04T03:24:54;16.52;;;8.68;;
65665;SDS011;52365;47.464;18.976;2023-03-04T03:25:30;16.60;;;8.23;;
65665;SDS011;52365;47.464;18.976;2023-03-04T03:26:07;17.73;;;8.90;;
65665;SDS011;52365;47.464;18.976;2023-03-04T03:26:43;16.73;;;8.70;;
65665;SDS011;52365;47.464;18.976;2023-03-04T03:27:19;15.82;;;8.45;;
65665;SDS011;52365;47.464;18.976;2023-03-04T03:27:55;15.45;;;8.52;;
65665;SDS011;52365;47.464;18.976;2023-03-04T03:28:31;16.35;;;8.52;;
65665;SDS011;52365;47.464;18.976;2023-03-04T03:29:07;16.58;;;8.57;;
65665;SDS011;52365;47.464;18.976;2023-03-04T03:29:43;16.58;;;8.60;;
65665;SDS011;52365;47.464;18.976;2023-03-04T03:30:19;14.68;;;7.80;;
65665;SDS011;52365;47.464;18.976;2023-03-04T03:30:56;16.27;;;8.25;;
65665;SDS011;52365;47.464;18.976;2023-03-04T03:31:32;17.60;;;9.10;;
65665;SDS011;52365;47.464;18.976;2023-03-04T03:32:08;16.58;;;8.43;;
65665;SDS011;52365;47.464;18.976;2023-03-04T03:32:44;15.00;;;7.95;;
65665;SDS011;52365;47.464;18.976;2023-03-04T03:33:20;14.95;;;8.20;;
65665;SDS011;52365;47.464;18.976;2023-03-04T03:33:56;15.30;;;7.93;;
65665;SDS011;52365;47.464;18.976;2023-03-04T03:34:32;15.18;;;8.43;;
65665;SDS011;52365;47.464;18.976;2023-03-04T03:35:09;15.13;;;7.65;;
65665;SDS011;52365;47.464;18.976;2023-03-04T03:35:45;16.48;;;8.23;;
65665;SDS011;52365;47.464;18.976;2023-03-04T03:36:21;15.57;;;8.30;;
65665;SDS011;52365;47.464;18.976;2023-03-04T03:36:57;15.52;;;8.48;;
65665;SDS011;52365;47.464;18.976;2023-03-04T03:37:33;14.77;;;8.02;;
65665;SDS011;52365;47.464;18.976;2023-03-04T03:38:09;14.55;;;7.55;;
65665;SDS011;52365;47.464;18.976;2023-03-04T03:38:45;17.17;;;8.38;;
65665;SDS011;52365;47.464;18.976;2023-03-04T03:39:21;17.15;;;8.57;;